Time;durP1;ratioP1;P1;durP2;ratioP2;P2;SDS_P1;SDS_P2;PMS_P1;PMS_P2;Temp;Humidity;BMP_temperature;BMP_pressure;BME280_temperature;BME280_humidity;BME280_pressure;Samples;Min_cycle;Max_cycle;Signal;HPM_P1;HPM_P2
2023/01/30 00:01:32;;;;;;;19.23;9.20;;;;;;;3.50;62.86;100120.13;3157685;28;20047;-75
2023/01/30 00:03:04;;;;;;;22.40;9.73;;;;;;;3.53;62.84;100115.78;3157971;28;20249;-76
2023/01/30 00:04:36;;;;;;;24.92;10.40;;;;;;;3.55;62.74;100118.31;3157755;28;20113;-76
2023/01/30 00:06:07;;;;;;;23.63;9.75;;;;;;;3.55;62.73;100113.16;3157469;28;20048;-75
2023/01/30 00:07:40;;;;;;;23.70;10.63;;;;;;;3.58;62.74;100115.69;3157720;28;20044;-75
2023/01/30 00:09:14;;;;;;;23.95;10.07;;;;;;;3.56;62.76;100112.31;3161066;28;20527;-77
2023/01/30 00:10:45;;;;;;;21.10;10.27;;;;;;;3.55;62.70;100116.63;3157586;28;20072;-74
2023/01/30 00:12:17;;;;;;;20.75;10.40;;;;;;;3.55;62.86;100113.16;3157111;28;20048;-74
2023/01/30 00:13:50;;;;;;;21.65;9.27;;;;;;;3.54;62.75;100112.31;3157816;28;20043;-74
2023/01/30 00:15:21;;;;;;;19.02;8.90;;;;;;;3.53;62.86;100108.06;3157868;28;20076;-74
2023/01/30 00:16:53;;;;;;;21.92;9.55;;;;;;;3.54;62.78;100111.47;3157393;28;20051;-75
2023/01/30 00:18:24;;;;;;;20.77;9.73;;;;;;;3.55;62.90;100111.47;3157661;28;20060;-75
2023/01/30 00:19:56;;;;;;;20.90;9.68;;;;;;;3.56;62.88;100112.31;3157049;28;20585;-75
2023/01/30 00:21:28;;;;;;;20.77;9.32;;;;;;;3.57;62.87;100112.28;3154396;28;20102;-74
2023/01/30 00:23:01;;;;;;;25.85;10.60;;;;;;;3.58;62.74;100114.00;3157653;28;20056;-74
2023/01/30 00:24:33;;;;;;;19.48;9.60;;;;;;;3.57;62.73;100114.00;3160044;28;20083;-74
2023/01/30 00:26:06;;;;;;;22.33;9.55;;;;;;;3.60;62.78;100113.97;3161388;28;20039;-74
2023/01/30 00:27:37;;;;;;;18.27;8.98;;;;;;;3.59;62.82;100110.53;3160837;28;20062;-75
2023/01/30 00:29:09;;;;;;;23.90;9.60;;;;;;;3.61;62.75;100108.81;3160363;28;20051;-74
2023/01/30 00:30:40;;;;;;;19.95;9.52;;;;;;;3.62;62.74;100101.94;3159634;28;20060;-75
2023/01/30 00:32:12;;;;;;;21.50;9.88;;;;;;;3.62;62.55;100100.22;3158822;28;20048;-75
2023/01/30 00:33:44;;;;;;;20.58;9.93;;;;;;;3.63;62.72;100101.06;3157729;28;20052;-74
2023/01/30 00:35:16;;;;;;;22.02;9.65;;;;;;;3.65;62.69;100104.47;3157434;28;20105;-75
2023/01/30 00:36:48;;;;;;;19.67;9.48;;;;;;;3.67;62.60;100104.44;3157509;28;20067;-75
2023/01/30 00:38:21;;;;;;;24.52;10.40;;;;;;;3.65;62.60;100107.91;3157618;28;20060;-74
2023/01/30 00:39:52;;;;;;;19.63;9.38;;;;;;;3.64;62.55;100106.22;3157545;28;20055;-74
2023/01/30 00:47:03;;;;;;;23.60;9.75;;;;;;;3.64;62.70;100106.22;3157182;28;20465;-74
2023/01/30 00:47:05;;;;;;;21.52;9.50;;;;;;;3.58;62.77;100105.41;3157620;28;20056;-74
2023/01/30 00:48:37;;;;;;;23.40;10.40;;;;;;;3.56;62.78;100104.59;3157543;28;20055;-75
2023/01/30 00:50:10;;;;;;;24.98;9.90;;;;;;;3.58;62.81;100106.28;3156644;28;20105;-75
2023/01/30 00:51:42;;;;;;;25.02;10.80;;;;;;;3.57;62.84;100101.13;3157303;28;20134;-75
2023/01/30 00:53:15;;;;;;;23.13;10.80;;;;;;;3.57;62.94;100109.72;3157604;28;20051;-74
2023/01/30 00:54:50;;;;;;;22.02;10.13;;;;;;;3.56;62.94;100105.44;3153346;28;20044;-75
2023/01/30 00:56:22;;;;;;;23.52;10.88;;;;;;;3.53;62.84;100102.91;3157186;28;20048;-75
2023/01/30 00:57:52;;;;;;;22.80;10.45;;;;;;;3.54;62.99;100096.88;3157208;28;20444;-73
2023/01/30 00:59:24;;;;;;;22.05;10.95;;;;;;;3.52;63.00;100097.75;3157678;28;20100;-72
2023/01/30 01:00:56;;;;;;;24.60;10.60;;;;;;;3.53;63.08;100104.63;3157463;28;20040;-72
2023/01/30 01:02:28;;;;;;;23.92;10.25;;;;;;;3.52;63.02;100103.78;3156492;28;20052;-73
2023/01/30 01:04:00;;;;;;;21.75;10.50;;;;;;;3.48;63.12;100106.38;3157449;28;20445;-73
2023/01/30 01:05:32;;;;;;;25.15;10.23;;;;;;;3.47;63.18;100102.13;3158255;28;20101;-73
2023/01/30 01:07:03;;;;;;;21.27;10.50;;;;;;;3.46;63.17;100103.84;3157199;28;20055;-73
2023/01/30 01:08:35;;;;;;;20.80;10.18;;;;;;;3.47;63.28;100104.69;3157303;28;20048;-74
2023/01/30 01:10:15;;;;;;;25.70;11.75;;;;;;;3.46;63.35;100092.66;3157140;28;20047;-74
2023/01/30 01:11:46;;;;;;;21.05;9.48;;;;;;;3.44;63.34;100092.72;3157133;28;20047;-75
2023/01/30 01:13:18;;;;;;;22.00;10.35;;;;;;;3.46;63.37;100092.66;3156451;28;20505;-76
2023/01/30 01:14:50;;;;;;;18.73;9.80;;;;;;;3.44;63.32;100087.56;3146881;28;20044;-75
2023/01/30 01:16:23;;;;;;;23.33;10.25;;;;;;;3.38;63.53;100078.19;3157380;28;20048;-76
2023/01/30 01:17:56;;;;;;;30.50;11.45;;;;;;;3.44;63.40;100084.97;3157417;28;20599;-75
2023/01/30 01:19:28;;;;;;;22.45;10.43;;;;;;;3.44;63.26;100084.13;3157106;28;20105;-75
2023/01/30 01:20:59;;;;;;;22.30;9.65;;;;;;;3.44;63.31;100084.97;3147657;28;20066;-75
2023/01/30 01:22:31;;;;;;;25.45;10.65;;;;;;;3.43;63.31;100083.25;3155112;28;20048;-76
2023/01/30 01:24:04;;;;;;;23.75;10.93;;;;;;;3.38;63.29;100073.03;3157046;28;20548;-75
2023/01/30 01:25:37;;;;;;;21.98;10.20;;;;;;;3.42;63.20;100079.00;3156674;28;20121;-76
2023/01/30 01:27:09;;;;;;;22.75;10.63;;;;;;;3.42;63.31;100079.00;3157273;28;20048;-77
2023/01/30 01:28:39;;;;;;;24.88;10.63;;;;;;;3.36;63.34;100077.34;3157135;28;20056;-75
2023/01/30 01:30:13;;;;;;;20.35;9.68;;;;;;;3.34;63.37;100076.53;3151354;28;20130;-78
2023/01/30 01:31:45;;;;;;;20.33;10.00;;;;;;;3.32;63.18;100074.84;3156273;28;20052;-74
2023/01/30 01:33:17;;;;;;;21.90;9.70;;;;;;;3.29;63.45;100073.13;3156432;28;20048;-74
2023/01/30 01:34:48;;;;;;;24.08;11.32;;;;;;;3.30;63.57;100077.41;3157184;28;20051;-74
2023/01/30 01:36:20;;;;;;;21.08;10.80;;;;;;;3.28;63.49;100073.13;3159421;28;20445;-75
2023/01/30 01:37:54;;;;;;;27.73;10.98;;;;;;;3.25;63.63;100068.88;3159274;28;20043;-74
2023/01/30 01:41:00;;;;;;;20.35;9.65;;;;;;;3.28;63.66;100068.84;3159478;28;20056;-75
2023/01/30 01:41:18;;;;;;;22.27;10.13;;;;;;;3.26;63.70;100069.75;3159057;28;20454;-73
2023/01/30 01:42:49;;;;;;;20.88;9.70;;;;;;;3.28;63.54;100070.56;3154176;28;20039;-75
2023/01/30 01:44:25;;;;;;;20.77;9.68;;;;;;;3.19;63.32;100062.09;3154138;28;20116;-74
2023/01/30 01:45:59;;;;;;;22.00;10.32;;;;;;;3.24;63.52;100069.75;3153603;28;20097;-75
2023/01/30 01:47:33;;;;;;;19.55;9.23;;;;;;;3.27;63.57;100068.88;3153994;28;20161;-74
2023/01/30 01:49:12;;;;;;;23.83;9.57;;;;;;;3.28;63.36;100068.84;3154269;28;20064;-74
2023/01/30 01:50:48;;;;;;;22.15;9.40;;;;;;;3.26;63.45;100069.75;3153936;28;20055;-74
2023/01/30 01:52:22;;;;;;;20.75;9.52;;;;;;;3.26;63.38;100068.03;3153682;28;20059;-73
2023/01/30 01:53:58;;;;;;;22.33;10.07;;;;;;;3.23;63.27;100070.63;3153860;28;20056;-74
2023/01/30 01:55:31;;;;;;;22.00;9.85;;;;;;;3.20;63.44;100073.25;3154116;28;20111;-74
2023/01/30 01:57:11;;;;;;;20.08;10.27;;;;;;;3.15;63.41;100073.28;3153998;28;20142;-74
2023/01/30 01:58:47;;;;;;;19.67;9.57;;;;;;;3.18;63.20;100078.38;3153660;28;20059;-74
2023/01/30 02:00:21;;;;;;;20.55;9.77;;;;;;;3.18;63.24;100074.97;3153880;28;20219;-74
2023/01/30 02:01:56;;;;;;;;;;;;;;;3.15;63.29;100080.16;3157450;28;20060;-74
2023/01/30 02:03:32;;;;;;;24.52;9.75;;;;;;;3.15;63.34;100072.44;3153965;28;19935;-73
2023/01/30 02:05:05;;;;;;;21.40;8.90;;;;;;;3.16;63.27;100072.41;3153928;28;20056;-75
2023/01/30 02:06:39;;;;;;;21.70;9.43;;;;;;;3.16;63.21;100068.97;3153806;28;20091;-74
2023/01/30 02:08:14;;;;;;;21.13;9.20;;;;;;;3.15;63.32;100068.13;3153898;28;20048;-74
2023/01/30 02:09:46;;;;;;;19.63;9.20;;;;;;;3.14;63.28;100075.88;3153451;28;20056;-74
2023/01/30 02:11:26;;;;;;;23.27;9.95;;;;;;;3.14;63.14;100070.75;3153548;28;20234;-74
2023/01/30 02:13:00;;;;;;;20.85;9.88;;;;;;;3.13;63.22;100066.44;3153616;28;20044;-76
2023/01/30 02:14:33;;;;;;;19.02;8.82;;;;;;;3.13;63.16;100066.44;3153948;28;20108;-75
2023/01/30 02:16:08;;;;;;;22.05;10.27;;;;;;;3.08;63.22;100063.09;3153464;28;20139;-74
2023/01/30 02:17:40;;;;;;;26.50;10.85;;;;;;;3.10;63.21;100067.31;3153589;28;20052;-75
2023/01/30 02:19:26;;;;;;;17.75;8.90;;;;;;;3.11;63.26;100068.19;3153714;28;20048;-76
2023/01/30 02:21:18;;;;;;;21.38;9.77;;;;;;;3.09;63.14;100065.63;3149495;28;20040;-75
2023/01/30 02:23:28;;;;;;;22.77;9.95;;;;;;;3.06;63.10;100059.66;3150508;28;20055;-75
2023/01/30 02:25:39;;;;;;;22.15;9.43;;;;;;;3.06;63.13;100064.81;3145050;28;20055;-75
2023/01/30 02:27:42;;;;;;;22.95;8.32;;;;;;;3.05;63.18;100060.53;3143793;28;20059;-75
2023/01/30 02:29:38;;;;;;;22.58;9.55;;;;;;;3.06;63.08;100055.38;3153683;28;20159;-76
2023/01/30 02:31:32;;;;;;;21.10;9.30;;;;;;;3.06;63.05;100057.94;3139802;28;20079;-76
2023/01/30 02:33:12;;;;;;;19.30;8.82;;;;;;;3.04;63.01;100056.25;3153719;28;20048;-76
2023/01/30 02:34:51;;;;;;;21.25;8.90;;;;;;;3.04;63.09;100056.25;3153045;28;20048;-75
2023/01/30 02:36:30;;;;;;;21.77;9.65;;;;;;;2.92;63.01;100037.50;3153350;28;20052;-75
2023/01/30 02:38:16;;;;;;;21.02;10.05;;;;;;;2.98;62.97;100057.16;3152833;28;20066;-74
2023/01/30 02:40:05;;;;;;;22.30;9.18;;;;;;;2.98;62.89;100046.88;3146723;28;20115;-74
2023/01/30 02:41:45;;;;;;;21.63;9.18;;;;;;;2.95;62.87;100049.47;3153551;28;20101;-76
2023/01/30 02:43:28;;;;;;;24.80;10.20;;;;;;;2.91;62.90;100040.94;3153518;28;20067;-73
2023/01/30 02:45:06;;;;;;;20.65;9.13;;;;;;;2.95;62.92;100052.03;3153347;28;20044;-74
2023/01/30 02:46:51;;;;;;;19.92;9.23;;;;;;;2.93;62.97;100046.09;3152827;28;20048;-75
2023/01/30 02:48:28;;;;;;;21.10;9.70;;;;;;;2.95;62.93;100052.03;3153036;28;20056;-72
2023/01/30 02:50:05;;;;;;;24.85;9.93;;;;;;;2.98;62.87;100054.59;3149969;28;20098;-74
2023/01/30 02:51:39;;;;;;;27.38;10.43;;;;;;;3.00;62.87;100052.84;3153059;28;20079;-74
2023/01/30 02:53:12;;;;;;;22.02;9.30;;;;;;;3.00;62.86;100052.84;3153148;28;20073;-74
2023/01/30 02:54:44;;;;;;;20.60;9.50;;;;;;;3.02;62.86;100053.69;3152879;28;20055;-73
2023/01/30 02:56:16;;;;;;;20.77;9.55;;;;;;;3.03;62.54;100054.56;3153584;28;20071;-75
2023/01/30 02:57:48;;;;;;;21.42;9.35;;;;;;;3.01;62.70;100053.69;3156137;28;20077;-76
2023/01/30 02:59:26;;;;;;;24.95;10.38;;;;;;;3.00;62.71;100052.00;3153247;28;20109;-70
2023/01/30 03:01:29;;;;;;;24.60;9.68;;;;;;;3.00;62.71;100052.00;3153245;28;20135;-71
2023/01/30 03:03:18;;;;;;;25.10;9.73;;;;;;;2.98;62.67;100046.88;3152195;28;20118;-73
2023/01/30 03:05:13;;;;;;;22.98;10.30;;;;;;;2.99;62.69;100051.16;3152979;28;20147;-72
2023/01/30 03:07:02;;;;;;;28.23;10.75;;;;;;;2.94;62.80;100042.63;3145219;28;20491;-70
2023/01/30 03:08:45;;;;;;;24.55;10.05;;;;;;;2.92;62.54;100046.94;3152894;28;20055;-75
2023/01/30 03:10:28;;;;;;;23.63;11.13;;;;;;;2.90;62.60;100041.81;3151722;28;20094;-72
2023/01/30 03:12:03;;;;;;;21.63;9.85;;;;;;;2.91;62.74;100040.09;3152705;28;20316;-73
2023/01/30 03:13:45;;;;;;;23.73;10.38;;;;;;;2.92;62.62;100050.34;3140586;28;20601;-73
2023/01/30 03:15:25;;;;;;;22.85;10.95;;;;;;;2.93;62.69;100051.22;3147633;28;20105;-73
2023/01/30 03:16:59;;;;;;;22.63;9.35;;;;;;;2.89;62.65;100040.09;3141152;28;20056;-72
2023/01/30 03:18:32;;;;;;;;;;;;;;;2.88;62.68;100042.69;3152928;28;20075;-73
2023/01/30 03:20:05;;;;;;;25.52;9.40;;;;;;;2.81;62.68;100041.91;3151011;28;20365;-72
2023/01/30 03:21:41;;;;;;;23.98;9.68;;;;;;;2.78;62.64;100026.50;3147964;28;20056;-72
2023/01/30 03:23:13;;;;;;;24.65;9.23;;;;;;;2.84;62.69;100036.75;3152780;28;20055;-71
2023/01/30 03:24:44;;;;;;;28.67;11.57;;;;;;;2.85;62.50;100037.59;3152319;28;20111;-72
2023/01/30 03:26:20;;;;;;;21.13;10.05;;;;;;;2.87;62.53;100035.81;3149972;28;20052;-71
2023/01/30 03:27:54;;;;;;;25.88;9.98;;;;;;;2.85;62.46;100029.88;3152911;28;20494;-72
2023/01/30 03:29:26;;;;;;;24.88;10.73;;;;;;;2.83;62.54;100027.28;3152898;28;20052;-71
2023/01/30 03:30:58;;;;;;;27.60;10.95;;;;;;;2.84;62.53;100025.56;3152762;28;20184;-72
2023/01/30 03:32:30;;;;;;;27.13;11.32;;;;;;;2.81;62.38;100023.91;3152449;28;20590;-71
2023/01/30 03:34:04;;;;;;;22.80;10.60;;;;;;;2.82;62.42;100029.91;3152446;28;20101;-72
2023/01/30 03:35:36;;;;;;;25.08;11.13;;;;;;;2.82;62.45;100028.19;3148198;28;20052;-72
2023/01/30 03:37:08;;;;;;;25.27;11.43;;;;;;;2.83;62.45;100027.28;3152659;28;20048;-72
2023/01/30 03:38:40;;;;;;;25.48;11.15;;;;;;;2.84;62.42;100030.72;3152026;28;20210;-72
2023/01/30 03:40:13;;;;;;;26.85;10.95;;;;;;;2.77;62.38;100014.50;3152854;28;20059;-72
2023/01/30 03:41:46;;;;;;;25.42;10.77;;;;;;;2.81;62.46;100021.34;3152673;28;20049;-72
2023/01/30 03:43:18;;;;;;;26.53;10.80;;;;;;;2.82;62.49;100022.19;3152343;28;20436;-73
2023/01/30 03:44:50;;;;;;;25.40;10.60;;;;;;;2.84;62.40;100025.56;3152438;28;20366;-73
2023/01/30 03:46:22;;;;;;;24.35;10.30;;;;;;;2.85;62.53;100020.44;3152359;28;20083;-73
2023/01/30 03:47:53;;;;;;;22.98;10.23;;;;;;;2.89;62.50;100022.09;3152399;28;20554;-73
2023/01/30 03:49:27;;;;;;;22.95;9.95;;;;;;;2.87;62.52;100026.41;3152389;28;20346;-70
2023/01/30 03:50:59;;;;;;;21.98;10.50;;;;;;;2.87;62.39;100023.84;3150632;28;20499;-70
2023/01/30 03:52:31;;;;;;;23.60;10.38;;;;;;;2.91;62.32;100033.22;3152371;28;20047;-70
2023/01/30 03:54:03;;;;;;;27.05;10.13;;;;;;;2.87;62.43;100015.25;3154777;28;20655;-70
2023/01/30 03:55:35;;;;;;;23.55;10.75;;;;;;;2.91;62.04;100022.94;3151875;28;20135;-70
2023/01/30 03:57:07;;;;;;;25.40;11.05;;;;;;;2.87;62.16;100021.28;3152425;28;20561;-70
2023/01/30 03:58:38;;;;;;;21.48;10.18;;;;;;;2.88;62.18;100033.25;3151807;28;20058;-71
2023/01/30 04:00:11;;;;;;;24.85;11.02;;;;;;;2.85;62.26;100028.16;3152238;28;20052;-73
2023/01/30 04:01:43;;;;;;;24.42;10.88;;;;;;;2.84;62.23;100029.03;3152592;28;20163;-72
2023/01/30 04:03:14;;;;;;;25.92;10.68;;;;;;;2.83;62.23;100035.00;3152063;28;20505;-71
2023/01/30 04:04:48;;;;;;;24.73;11.40;;;;;;;2.84;62.14;100033.28;3152343;28;20068;-73
2023/01/30 04:06:19;;;;;;;;;;;;;;;2.81;62.21;100025.59;3152553;28;20116;-72
2023/01/30 04:07:50;;;;;;;25.77;10.25;;;;;;;2.78;62.29;100025.63;3152590;28;19923;-72
2023/01/30 04:09:22;;;;;;;22.35;9.95;;;;;;;2.78;62.26;100026.50;3152756;28;20056;-72
2023/01/30 04:10:54;;;;;;;21.92;10.27;;;;;;;2.79;62.29;100023.06;3152538;28;20504;-74
2023/01/30 04:12:26;;;;;;;22.48;10.73;;;;;;;2.79;62.05;100022.22;3152030;28;20059;-73
2023/01/30 04:13:58;;;;;;;25.88;11.20;;;;;;;2.76;62.27;100017.94;3152265;28;20490;-72
2023/01/30 04:15:30;;;;;;;25.65;11.05;;;;;;;2.77;62.31;100021.38;3152002;28;20721;-72
2023/01/30 04:17:02;;;;;;;20.48;9.15;;;;;;;2.77;62.28;100022.22;3151898;28;20551;-72
2023/01/30 04:18:35;;;;;;;22.63;10.68;;;;;;;2.78;62.24;100018.78;3151956;28;20128;-72
2023/01/30 04:20:10;;;;;;;24.52;10.27;;;;;;;2.79;62.27;100023.06;3149716;28;20051;-71
2023/01/30 04:21:42;;;;;;;25.52;10.88;;;;;;;2.79;62.23;100014.50;3143826;28;20560;-71
2023/01/30 04:23:14;;;;;;;20.58;10.13;;;;;;;2.78;62.08;100020.50;3152164;28;20046;-70
2023/01/30 04:24:45;;;;;;;23.10;9.98;;;;;;;2.77;61.96;100024.78;3151996;28;20067;-70
2023/01/30 04:26:17;;;;;;;24.48;10.18;;;;;;;2.79;62.18;100023.06;3152073;28;20189;-70
2023/01/30 04:27:49;;;;;;;30.35;11.40;;;;;;;2.83;61.98;100026.44;3152225;28;20494;-71
2023/01/30 04:29:21;;;;;;;24.88;10.10;;;;;;;2.82;61.94;100023.03;3144952;28;20130;-70
2023/01/30 04:30:53;;;;;;;25.38;10.70;;;;;;;2.80;61.95;100024.75;3152468;28;20052;-71
2023/01/30 04:32:26;;;;;;;19.48;9.02;;;;;;;2.78;61.76;100020.50;3151691;28;20473;-71
2023/01/30 04:33:58;;;;;;;21.00;10.30;;;;;;;2.72;61.77;100021.41;3151883;28;20311;-71
2023/01/30 04:35:32;;;;;;;20.08;8.93;;;;;;;2.69;61.89;100019.75;3152007;28;20056;-71
2023/01/30 04:37:03;;;;;;;;;;;;;;;2.67;61.86;100020.63;3152594;28;20117;-71
2023/01/30 04:38:36;;;;;;;22.73;9.55;;;;;;;2.68;61.88;100014.59;3151858;28;19924;-71
2023/01/30 04:40:09;;;;;;;25.48;10.82;;;;;;;2.69;61.94;100011.16;3151920;28;20048;-70
2023/01/30 04:41:41;;;;;;;24.05;10.40;;;;;;;2.72;61.79;100018.81;3151318;28;20654;-72
2023/01/30 04:43:13;;;;;;;23.77;10.40;;;;;;;2.72;61.87;100023.97;3152192;28;20077;-71
2023/01/30 04:44:45;;;;;;;21.42;10.45;;;;;;;2.69;61.78;100017.16;3152202;28;20048;-72
2023/01/30 04:46:17;;;;;;;23.55;10.90;;;;;;;2.70;61.81;100018.84;3151800;28;20048;-72
2023/01/30 04:47:49;;;;;;;22.48;9.93;;;;;;;2.72;61.78;100023.97;3151333;28;20056;-72
2023/01/30 04:49:21;;;;;;;24.60;10.52;;;;;;;2.71;61.71;100019.72;3152089;28;20588;-72
2023/01/30 04:50:55;;;;;;;26.65;10.15;;;;;;;2.71;61.84;100017.97;3154886;28;20101;-71
2023/01/30 04:52:27;;;;;;;22.83;10.15;;;;;;;2.69;61.78;100021.44;3151566;28;20056;-71
2023/01/30 04:53:59;;;;;;;25.52;10.93;;;;;;;2.69;61.63;100018.84;3151969;28;20052;-71
2023/01/30 04:55:32;;;;;;;20.83;9.88;;;;;;;2.69;61.67;100021.44;3151550;28;20428;-71
2023/01/30 04:57:04;;;;;;;22.63;10.25;;;;;;;2.69;61.64;100016.28;3151472;28;20044;-72
2023/01/30 04:58:36;;;;;;;24.83;10.65;;;;;;;2.68;61.71;100015.44;3151933;28;20048;-71
2023/01/30 05:00:09;;;;;;;21.48;9.60;;;;;;;2.70;61.77;100020.59;3152117;28;20059;-71
2023/01/30 05:01:41;;;;;;;21.20;9.00;;;;;;;2.66;61.53;100013.75;3151491;28;20642;-72
2023/01/30 05:03:13;;;;;;;23.33;9.90;;;;;;;2.63;61.61;100016.34;3151348;28;20059;-72
2023/01/30 05:04:45;;;;;;;29.23;10.93;;;;;;;2.62;61.68;100017.22;3151714;28;20490;-72
2023/01/30 05:06:18;;;;;;;23.50;10.45;;;;;;;2.61;61.78;100013.81;3151656;28;20498;-71
2023/01/30 05:07:50;;;;;;;;;;;;;;;2.57;61.78;100017.25;3152451;28;20062;-71
2023/01/30 05:09:22;;;;;;;19.98;9.52;;;;;;;2.56;61.90;100014.72;3151856;28;20000;-73
2023/01/30 05:10:54;;;;;;;28.67;11.07;;;;;;;2.57;61.90;100016.41;3153259;28;20117;-70
2023/01/30 05:12:26;;;;;;;26.30;11.90;;;;;;;2.60;61.78;100019.78;3149766;28;20638;-70
2023/01/30 05:13:58;;;;;;;24.15;9.57;;;;;;;2.58;61.71;100013.84;3150979;28;20048;-70
2023/01/30 05:15:30;;;;;;;21.75;10.32;;;;;;;2.57;61.81;100021.53;3150577;28;20047;-71
2023/01/30 05:17:02;;;;;;;25.85;10.50;;;;;;;2.59;61.83;100017.25;3148759;28;20784;-69
2023/01/30 05:18:34;;;;;;;27.95;10.68;;;;;;;2.59;61.79;100018.09;3154168;28;20052;-69
2023/01/30 05:20:09;;;;;;;25.13;10.52;;;;;;;2.61;61.91;100023.25;3153654;28;20521;-69
2023/01/30 05:21:42;;;;;;;24.42;10.48;;;;;;;2.60;61.93;100027.50;3153883;28;20128;-71
2023/01/30 05:23:13;;;;;;;22.63;10.60;;;;;;;2.59;61.75;100019.81;3151879;28;20109;-69
2023/01/30 05:24:45;;;;;;;24.20;10.55;;;;;;;2.59;61.84;100022.41;3154198;28;20159;-74
2023/01/30 05:26:17;;;;;;;23.10;10.00;;;;;;;2.55;61.89;100013.88;3153943;28;20062;-69
2023/01/30 05:27:49;;;;;;;22.60;10.13;;;;;;;2.53;61.87;100020.72;3153865;28;20113;-72
2023/01/30 05:29:21;;;;;;;28.75;11.23;;;;;;;2.53;61.88;100015.59;3153974;28;20055;-74
2023/01/30 05:30:53;;;;;;;26.98;10.98;;;;;;;2.53;61.90;100012.16;3153866;28;20063;-70
2023/01/30 05:32:26;;;;;;;37.28;16.30;;;;;;;2.53;61.80;100015.59;3150764;28;20054;-72
2023/01/30 05:33:58;;;;;;;46.38;18.75;;;;;;;2.55;61.88;100015.59;3150878;28;20238;-74
2023/01/30 05:35:29;;;;;;;32.78;14.48;;;;;;;2.59;61.90;100019.81;3153990;28;20055;-75
2023/01/30 05:37:03;;;;;;;26.95;11.68;;;;;;;2.62;61.74;100018.06;3153551;28;20581;-74
2023/01/30 05:38:35;;;;;;;29.35;11.68;;;;;;;2.67;61.86;100023.19;3153115;28;20086;-75
2023/01/30 05:40:09;;;;;;;25.13;11.13;;;;;;;2.67;61.72;100025.75;3153834;28;20547;-72
2023/01/30 05:41:41;;;;;;;25.65;11.93;;;;;;;2.65;61.56;100020.63;3153786;28;20058;-77
2023/01/30 05:43:12;;;;;;;27.67;10.98;;;;;;;2.63;61.61;100021.50;3153241;28;20056;-76
2023/01/30 05:44:44;;;;;;;26.40;11.68;;;;;;;2.59;61.66;100020.66;3154159;28;20044;-72
2023/01/30 05:46:17;;;;;;;27.60;11.63;;;;;;;2.59;61.70;100019.81;3154411;28;20138;-75
2023/01/30 05:47:52;;;;;;;22.80;10.05;;;;;;;2.54;61.63;100017.28;3154886;28;20051;-71
2023/01/30 05:49:24;;;;;;;27.27;11.98;;;;;;;2.57;61.83;100021.53;3153684;28;20059;-70
2023/01/30 05:50:58;;;;;;;25.30;10.80;;;;;;;2.57;61.73;100017.25;3153991;28;20050;-69
2023/01/30 05:52:31;;;;;;;26.25;12.32;;;;;;;2.57;61.44;100013.84;3153064;28;20101;-74
2023/01/30 05:54:03;;;;;;;;;;;;;;;2.54;61.82;100024.16;3150761;28;20103;-71
2023/01/30 05:55:35;;;;;;;23.42;10.73;;;;;;;2.53;61.73;100019.88;3153925;28;20009;-73
2023/01/30 05:57:07;;;;;;;25.05;11.40;;;;;;;2.55;61.84;100018.16;3147373;28;20110;-73
2023/01/30 05:58:39;;;;;;;26.55;11.75;;;;;;;2.57;61.70;100022.41;3146274;28;20051;-73
2023/01/30 06:00:12;;;;;;;28.30;10.07;;;;;;;2.56;61.70;100017.28;3152539;28;20064;-71
2023/01/30 06:01:44;;;;;;;28.70;11.18;;;;;;;2.55;61.75;100023.31;3153401;28;20055;-71
2023/01/30 06:03:16;;;;;;;30.10;10.57;;;;;;;2.54;61.87;100019.00;3153237;28;20098;-71
2023/01/30 06:04:48;;;;;;;26.67;10.18;;;;;;;2.56;61.90;100017.28;3153432;28;20044;-69
2023/01/30 06:06:20;;;;;;;29.90;11.10;;;;;;;2.55;61.77;100021.56;3153010;28;20136;-69
2023/01/30 06:07:54;;;;;;;27.98;10.88;;;;;;;2.55;61.82;100021.56;3154107;28;20150;-69
2023/01/30 06:09:25;;;;;;;29.95;10.95;;;;;;;2.54;61.62;100007.00;3153429;28;20665;-69
2023/01/30 06:11:00;;;;;;;25.45;10.23;;;;;;;2.57;61.56;100026.69;3153371;28;20059;-69
2023/01/30 06:12:32;;;;;;;25.10;11.98;;;;;;;2.56;61.90;100027.56;3153149;28;20047;-69
2023/01/30 06:14:04;;;;;;;26.23;11.18;;;;;;;2.54;61.83;100026.72;3152845;28;20597;-69
2023/01/30 06:15:36;;;;;;;23.67;10.75;;;;;;;2.54;61.96;100031.84;3152791;28;20112;-70
2023/01/30 06:17:08;;;;;;;25.92;10.75;;;;;;;2.56;61.80;100028.41;3152962;28;20124;-69
2023/01/30 06:18:41;;;;;;;24.60;10.90;;;;;;;2.54;61.79;100030.13;3152862;28;20230;-70
2023/01/30 06:20:12;;;;;;;24.25;10.98;;;;;;;2.52;61.82;100034.47;3150487;28;20799;-70
2023/01/30 06:21:44;;;;;;;19.60;9.38;;;;;;;2.48;61.72;100033.63;3149805;28;20114;-71
2023/01/30 06:23:17;;;;;;;22.48;10.07;;;;;;;2.46;61.70;100037.94;3151646;28;20056;-71
2023/01/30 06:24:49;;;;;;;23.10;10.05;;;;;;;2.44;61.63;100033.66;3153656;28;20044;-74
2023/01/30 06:26:21;;;;;;;30.65;13.63;;;;;;;2.45;61.80;100032.78;3148701;28;20056;-71
2023/01/30 06:27:53;;;;;;;22.10;8.98;;;;;;;2.45;61.55;100028.50;3144443;28;20052;-73
2023/01/30 06:29:25;;;;;;;24.25;11.07;;;;;;;2.45;61.52;100033.63;3152615;28;20076;-73
2023/01/30 06:30:57;;;;;;;25.55;11.48;;;;;;;2.46;61.46;100035.34;3140918;28;20053;-71
2023/01/30 06:32:29;;;;;;;23.20;9.88;;;;;;;2.50;61.73;100034.47;3149707;28;20055;-71
2023/01/30 06:34:01;;;;;;;20.65;9.55;;;;;;;2.55;61.52;100038.72;3152931;28;20167;-74
2023/01/30 06:35:33;;;;;;;24.48;10.38;;;;;;;2.54;61.45;100035.28;3147813;28;20141;-70
2023/01/30 06:37:05;;;;;;;25.15;10.73;;;;;;;2.54;61.42;100035.28;3142271;28;20052;-71
2023/01/30 06:38:39;;;;;;;26.00;10.77;;;;;;;2.56;61.54;100036.13;3140743;28;20055;-70
2023/01/30 06:40:11;;;;;;;21.42;9.40;;;;;;;2.51;61.50;100032.72;3152607;28;20048;-72
2023/01/30 06:41:43;;;;;;;21.25;9.77;;;;;;;2.52;61.36;100034.47;3153006;28;20186;-71
2023/01/30 06:43:15;;;;;;;25.15;10.98;;;;;;;2.55;61.38;100038.72;3156560;28;20204;-72
2023/01/30 06:44:47;;;;;;;26.95;10.02;;;;;;;2.54;61.51;100031.84;3152410;28;20052;-69
2023/01/30 06:46:19;;;;;;;23.52;9.88;;;;;;;2.56;61.38;100027.56;3152146;28;20052;-72
2023/01/30 06:47:53;;;;;;;24.15;10.77;;;;;;;2.54;61.31;100034.44;3152982;28;20052;-72
2023/01/30 06:49:25;;;;;;;21.33;9.43;;;;;;;2.56;61.43;100030.97;3153218;28;20052;-72
2023/01/30 06:50:57;;;;;;;22.05;10.05;;;;;;;2.58;61.32;100030.97;3153232;28;20052;-70
2023/01/30 06:52:29;;;;;;;22.75;9.43;;;;;;;2.57;61.26;100034.41;3152469;28;20051;-72
2023/01/30 06:54:02;;;;;;;24.85;10.60;;;;;;;2.58;61.39;100038.69;3152914;28;20052;-70
2023/01/30 06:55:35;;;;;;;21.15;9.00;;;;;;;2.58;61.24;100033.56;3150505;28;20109;-70
2023/01/30 06:57:07;;;;;;;19.77;8.93;;;;;;;2.57;61.29;100037.81;3146111;28;20044;-77
2023/01/30 06:58:39;;;;;;;23.08;9.23;;;;;;;2.58;61.18;100036.13;3152904;28;20051;-77
2023/01/30 07:00:14;;;;;;;22.35;10.13;;;;;;;2.60;61.33;100042.09;3145519;28;20117;-77
2023/01/30 07:01:45;;;;;;;31.48;10.23;;;;;;;2.60;61.24;100040.38;3150155;28;20064;-79
2023/01/30 07:03:18;;;;;;;22.60;9.77;;;;;;;2.61;61.41;100034.38;3152655;28;20064;-77
2023/01/30 07:04:50;;;;;;;22.27;8.73;;;;;;;2.59;61.26;100035.25;3152695;28;20048;-73
2023/01/30 07:06:22;;;;;;;22.15;8.80;;;;;;;2.56;61.25;100041.25;3152778;28;20078;-75
2023/01/30 07:07:54;;;;;;;20.23;9.40;;;;;;;2.56;61.20;100043.84;3153010;28;20058;-74
2023/01/30 07:09:28;;;;;;;22.33;8.45;;;;;;;2.56;61.16;100045.56;3152912;28;20113;-73
2023/01/30 07:10:59;;;;;;;20.02;8.90;;;;;;;2.55;61.16;100044.72;3150416;28;20775;-78
2023/01/30 07:12:31;;;;;;;22.25;9.13;;;;;;;2.55;61.10;100042.16;3152779;28;20797;-75
2023/01/30 07:14:03;;;;;;;22.73;9.88;;;;;;;2.58;61.27;100043.84;3152208;28;20044;-69
2023/01/30 07:15:35;;;;;;;23.67;10.27;;;;;;;2.59;61.26;100050.69;3141504;28;20297;-72
2023/01/30 07:17:07;;;;;;;86.65;35.67;;;;;;;2.62;61.32;100037.78;3146327;28;20058;-70
2023/01/30 07:18:39;;;;;;;47.95;20.63;;;;;;;2.66;61.10;100036.88;3147878;28;20135;-72
2023/01/30 07:20:12;;;;;;;69.43;26.85;;;;;;;2.71;61.12;100038.56;3151187;28;20055;-69